createdAt,value
2019-04-27T00:00:14.778Z,12.33
2019-04-27T00:02:47.334Z,17.40
2019-04-27T00:05:32.052Z,9.88
2019-04-27T00:07:59.345Z,12.00
2019-04-27T00:13:02.210Z,9.75
2019-04-27T00:18:15.635Z,8.65
2019-04-27T00:20:54.531Z,10.93
2019-04-27T00:23:25.478Z,8.53
2019-04-27T00:25:55.019Z,13.05
2019-04-27T00:28:24.564Z,12.58
2019-04-27T00:30:54.006Z,13.08
2019-04-27T00:33:23.905Z,13.35
2019-04-27T00:36:00.825Z,12.60
2019-04-27T00:38:34.627Z,11.80
2019-04-27T00:41:05.563Z,10.95
2019-04-27T00:43:34.939Z,13.05
2019-04-27T00:46:04.749Z,12.63
2019-04-27T00:48:34.373Z,12.07
2019-04-27T00:51:04.247Z,13.98
2019-04-27T00:53:33.880Z,10.82
2019-04-27T00:56:04.887Z,14.15
2019-04-27T00:58:43.063Z,11.70
2019-04-27T01:01:20.309Z,10.95
2019-04-27T01:04:00.235Z,11.63
2019-04-27T01:06:29.509Z,10.82
2019-04-27T01:08:59.023Z,12.30
2019-04-27T01:11:28.291Z,13.00
2019-04-27T01:13:58.030Z,14.90
2019-04-27T01:16:27.305Z,13.43
2019-04-27T01:18:56.583Z,12.05
2019-04-27T01:21:26.141Z,11.10
2019-04-27T01:23:55.512Z,11.90
2019-04-27T01:26:29.172Z,12.18
2019-04-27T01:29:00.284Z,9.78
2019-04-27T01:31:30.799Z,10.30
2019-04-27T01:34:00.164Z,16.80
2019-04-27T01:36:29.788Z,11.20
2019-04-27T01:38:59.587Z,11.75
2019-04-27T01:41:30.553Z,10.65
2019-04-27T01:43:59.873Z,13.38
2019-04-27T01:46:29.633Z,12.45
2019-04-27T01:48:59.195Z,9.90
2019-04-27T01:51:29.460Z,13.88
2019-04-27T01:53:59.887Z,12.50
2019-04-27T01:56:29.498Z,13.10
2019-04-27T01:58:59.585Z,12.53
2019-04-27T02:01:30.666Z,10.75
2019-04-27T02:04:01.614Z,10.85
2019-04-27T02:06:30.884Z,10.43
2019-04-27T02:09:00.176Z,14.90
2019-04-27T02:11:29.456Z,13.43
2019-04-27T02:13:59.420Z,11.18
2019-04-27T02:16:30.589Z,13.08
2019-04-27T02:19:01.249Z,9.65
2019-04-27T02:21:30.522Z,14.68
2019-04-27T02:23:59.994Z,15.68
2019-04-27T02:26:29.975Z,11.45
2019-04-27T02:29:03.986Z,13.58
2019-04-27T02:31:36.575Z,11.83
2019-04-27T02:34:09.564Z,11.83
2019-04-27T02:36:39.145Z,12.50
2019-04-27T02:39:09.575Z,11.43
2019-04-27T02:41:40.019Z,11.93
2019-04-27T02:44:14.055Z,15.78
2019-04-27T02:46:43.472Z,12.35
2019-04-27T02:49:12.785Z,10.23
2019-04-27T02:52:00.359Z,11.28
2019-04-27T02:54:30.013Z,11.65
2019-04-27T02:56:59.598Z,9.90
2019-04-27T02:59:30.503Z,13.03
2019-04-27T03:02:20.198Z,11.95
2019-04-27T03:04:50.067Z,9.50
2019-04-27T03:07:20.183Z,14.50
2019-04-27T03:09:51.045Z,13.50
2019-04-27T03:12:22.338Z,14.40
2019-04-27T03:14:59.414Z,10.70
2019-04-27T03:17:39.792Z,12.78
2019-04-27T03:20:30.119Z,13.78
2019-04-27T03:23:01.425Z,11.53
2019-04-27T03:25:40.306Z,9.35
2019-04-27T03:28:12.487Z,12.58
2019-04-27T03:30:43.456Z,13.15
2019-04-27T03:33:12.941Z,11.78
2019-04-27T03:35:43.662Z,12.90
2019-04-27T03:38:13.418Z,12.93
2019-04-27T03:40:42.766Z,11.55
2019-04-27T03:43:21.129Z,8.70
2019-04-27T03:45:52.522Z,10.58
2019-04-27T03:48:21.464Z,11.55
2019-04-27T03:50:55.136Z,11.80
2019-04-27T03:53:26.348Z,10.45
2019-04-27T03:55:59.827Z,12.07
2019-04-27T04:01:10.675Z,12.30
2019-04-27T04:03:40.117Z,9.25
2019-04-27T04:06:10.796Z,8.85
2019-04-27T04:08:40.387Z,10.63
2019-04-27T04:11:11.296Z,13.85
2019-04-27T04:13:42.243Z,12.88
2019-04-27T04:16:17.008Z,12.40
2019-04-27T04:18:57.510Z,12.18
2019-04-27T04:21:26.937Z,9.90
2019-04-27T04:23:56.242Z,15.88
2019-04-27T04:26:25.515Z,14.20
2019-04-27T04:28:54.807Z,12.60
2019-04-27T04:31:24.089Z,11.95
2019-04-27T04:33:53.369Z,14.60
2019-04-27T04:36:22.658Z,12.80
2019-04-27T04:38:52.092Z,15.90
2019-04-27T04:41:35.115Z,19.10
2019-04-27T04:47:00.105Z,18.07
2019-04-27T04:49:29.612Z,15.20
2019-04-27T04:51:59.652Z,14.55
2019-04-27T04:54:30.050Z,16.80
2019-04-27T04:56:59.650Z,18.92
2019-04-27T04:59:29.235Z,16.60
2019-04-27T05:02:01.871Z,16.65
2019-04-27T05:04:29.643Z,16.82
2019-04-27T05:06:59.299Z,21.00
2019-04-27T05:09:29.559Z,20.88
2019-04-27T05:11:59.043Z,20.20
2019-04-27T05:14:28.995Z,21.87
2019-04-27T05:16:59.241Z,21.73
2019-04-27T05:19:29.571Z,22.32
2019-04-27T05:21:59.365Z,21.12
2019-04-27T05:24:29.370Z,20.27
2019-04-27T05:26:59.935Z,21.90
2019-04-27T05:29:29.455Z,20.55
2019-04-27T05:31:59.199Z,22.30
2019-04-27T05:34:29.820Z,24.20
2019-04-27T05:37:01.055Z,25.20
2019-04-27T05:39:30.200Z,23.18
2019-04-27T05:41:59.843Z,22.30
2019-04-27T05:44:50.466Z,24.23
2019-04-27T05:47:21.382Z,29.90
2019-04-27T05:49:51.931Z,19.95
2019-04-27T05:52:30.152Z,22.37
2019-04-27T05:55:00.958Z,22.77
2019-04-27T05:57:31.356Z,23.15
2019-04-27T06:00:02.702Z,20.25
2019-04-27T06:02:33.121Z,20.65
2019-04-27T06:05:02.426Z,26.23
2019-04-27T06:07:31.781Z,21.97
2019-04-27T06:10:01.115Z,26.60
2019-04-27T06:12:32.425Z,28.00
2019-04-27T06:15:02.810Z,25.15
2019-04-27T06:17:32.079Z,23.12
2019-04-27T06:20:01.716Z,25.90
2019-04-27T06:22:32.583Z,25.77
2019-04-27T06:25:01.889Z,24.32
2019-04-27T06:27:31.223Z,26.93
2019-04-27T06:30:00.591Z,27.40
2019-04-27T06:32:29.872Z,27.70
2019-04-27T06:34:59.424Z,29.85
2019-04-27T06:37:29.464Z,31.45
2019-04-27T06:39:59.801Z,33.05
2019-04-27T06:42:29.913Z,29.98
2019-04-27T06:44:59.912Z,26.60
2019-04-27T06:47:29.713Z,31.37
2019-04-27T06:49:59.079Z,26.15
2019-04-27T06:52:29.210Z,31.87
2019-04-27T06:55:00.480Z,31.55
2019-04-27T06:57:29.851Z,28.12
2019-04-27T07:00:00.771Z,30.68
2019-04-27T07:02:30.137Z,39.55
2019-04-27T07:04:59.431Z,23.42
2019-04-27T07:07:29.450Z,19.57
2019-04-27T07:09:59.320Z,8.25
2019-04-27T07:12:29.021Z,12.05
2019-04-27T07:14:59.603Z,7.90
2019-04-27T07:17:29.562Z,10.75
2019-04-27T07:19:59.589Z,9.05
2019-04-27T07:22:29.867Z,10.43
2019-04-27T07:24:59.481Z,8.15
2019-04-27T07:27:29.246Z,12.63
2019-04-27T07:30:00.858Z,12.33
2019-04-27T07:32:29.721Z,17.27
2019-04-27T07:34:58.982Z,13.48
2019-04-27T07:37:29.460Z,13.88
2019-04-27T07:39:59.944Z,13.83
2019-04-27T07:42:32.088Z,13.88
2019-04-27T07:45:03.043Z,17.48
2019-04-27T07:47:32.507Z,13.03
2019-04-27T07:50:01.969Z,14.90
2019-04-27T07:52:31.976Z,15.83
2019-04-27T07:55:01.333Z,14.65
2019-04-27T07:57:30.975Z,17.82
2019-04-27T08:00:00.291Z,20.27
2019-04-27T08:02:29.778Z,20.55
2019-04-27T08:04:59.595Z,20.55
2019-04-27T08:07:30.829Z,21.40
2019-04-27T08:10:01.717Z,19.25
2019-04-27T08:12:32.908Z,19.67
2019-04-27T08:15:02.202Z,25.25
2019-04-27T08:17:31.923Z,18.73
2019-04-27T08:20:01.236Z,19.57
2019-04-27T08:22:31.114Z,28.05
2019-04-27T08:25:00.427Z,23.92
2019-04-27T08:27:40.270Z,24.57
2019-04-27T08:30:19.338Z,22.77
2019-04-27T08:32:53.619Z,22.77
2019-04-27T08:35:24.482Z,20.50
2019-04-27T08:37:53.798Z,26.90
2019-04-27T08:40:24.682Z,24.18
2019-04-27T08:42:55.705Z,21.17
2019-04-27T08:45:25.322Z,25.05
2019-04-27T08:47:54.714Z,27.80
2019-04-27T08:50:24.017Z,22.07
2019-04-27T08:52:53.305Z,23.42
2019-04-27T08:55:22.590Z,23.30
2019-04-27T08:57:52.040Z,25.50
2019-04-27T09:00:21.691Z,29.50
2019-04-27T09:02:51.032Z,27.32
2019-04-27T09:05:26.494Z,21.75
2019-04-27T09:08:14.527Z,25.05
2019-04-27T09:10:45.474Z,22.82
2019-04-27T09:13:19.579Z,30.48
2019-04-27T09:15:51.714Z,23.62
2019-04-27T09:18:22.635Z,24.10
2019-04-27T09:20:59.348Z,24.30
2019-04-27T09:23:28.714Z,23.67
2019-04-27T09:25:59.552Z,22.82
2019-04-27T09:28:30.067Z,18.90
2019-04-27T09:30:59.410Z,23.87
2019-04-27T09:33:28.675Z,18.92
2019-04-27T09:35:59.075Z,18.07
2019-04-27T09:38:29.744Z,19.05
2019-04-27T09:41:00.757Z,18.98
2019-04-27T09:43:30.045Z,24.43
2019-04-27T09:45:59.469Z,20.25
2019-04-27T09:48:30.244Z,19.23
2019-04-27T09:50:59.547Z,23.57
2019-04-27T09:53:28.969Z,30.97
2019-04-27T09:55:58.400Z,19.15
2019-04-27T09:58:27.734Z,19.12
2019-04-27T10:00:57.194Z,20.37
2019-04-27T10:03:26.751Z,25.00
2019-04-27T10:05:57.043Z,15.25
2019-04-27T10:08:26.615Z,16.45
2019-04-27T10:10:56.664Z,16.48
2019-04-27T10:13:27.609Z,17.87
2019-04-27T10:15:58.198Z,14.63
2019-04-27T10:18:28.612Z,14.70
2019-04-27T10:21:01.931Z,20.48
2019-04-27T10:23:28.934Z,22.07
2019-04-27T10:25:58.236Z,17.12
2019-04-27T10:28:27.550Z,20.90
2019-04-27T10:30:56.869Z,16.57
2019-04-27T10:33:27.491Z,12.65
2019-04-27T10:35:58.372Z,15.72
2019-04-27T10:38:27.814Z,15.38
2019-04-27T10:40:57.204Z,16.35
2019-04-27T10:43:28.135Z,20.43
2019-04-27T10:45:57.484Z,16.93
2019-04-27T10:48:26.821Z,23.77
2019-04-27T10:50:56.320Z,16.82
2019-04-27T10:53:26.877Z,13.45
2019-04-27T10:55:56.740Z,12.45
2019-04-27T10:58:27.339Z,12.47
2019-04-27T11:00:59.770Z,12.50
2019-04-27T11:03:46.909Z,22.48
2019-04-27T11:06:23.913Z,28.17
2019-04-27T11:08:53.237Z,15.30
2019-04-27T11:11:22.540Z,17.65
2019-04-27T11:13:51.818Z,14.28
2019-04-27T11:16:21.386Z,12.53
2019-04-27T11:18:50.685Z,16.37
2019-04-27T11:21:21.184Z,17.35
2019-04-27T11:23:50.493Z,14.05
2019-04-27T11:26:19.824Z,11.20
2019-04-27T11:28:49.121Z,12.82
2019-04-27T11:31:20.178Z,4.97
2019-04-27T11:33:49.877Z,6.30
2019-04-27T11:36:25.599Z,6.53
2019-04-27T11:38:56.629Z,10.25
2019-04-27T11:41:26.302Z,8.48
2019-04-27T11:43:56.534Z,6.58
2019-04-27T11:46:26.733Z,8.65
2019-04-27T11:48:58.169Z,7.85
2019-04-27T11:51:27.242Z,11.18
2019-04-27T11:53:58.167Z,8.98
2019-04-27T11:56:27.554Z,10.38
2019-04-27T11:58:58.447Z,8.15
2019-04-27T12:01:29.118Z,14.18
2019-04-27T12:03:58.440Z,14.78
2019-04-27T12:06:28.171Z,11.15
2019-04-27T12:08:57.437Z,13.90
2019-04-27T12:11:26.867Z,18.87
2019-04-27T12:13:56.295Z,11.50
2019-04-27T12:16:26.183Z,7.97
2019-04-27T12:18:56.392Z,13.90
2019-04-27T12:21:26.160Z,21.37
2019-04-27T12:23:55.588Z,17.17
2019-04-27T12:26:28.113Z,17.30
2019-04-27T12:28:58.954Z,19.30
2019-04-27T12:31:29.961Z,17.30
2019-04-27T12:33:59.278Z,22.77
2019-04-27T12:36:28.601Z,18.98
2019-04-27T12:38:57.886Z,23.42
2019-04-27T12:41:27.444Z,15.43
2019-04-27T12:43:56.776Z,11.85
2019-04-27T12:46:26.128Z,19.35
2019-04-27T12:48:57.225Z,14.95
2019-04-27T12:51:26.697Z,18.23
2019-04-27T12:53:57.619Z,18.95
2019-04-27T12:56:34.249Z,26.05
2019-04-27T12:59:05.352Z,15.70
2019-04-27T13:01:36.078Z,8.90
2019-04-27T13:04:05.608Z,10.08
2019-04-27T13:06:35.810Z,13.88
2019-04-27T13:09:07.247Z,17.50
2019-04-27T13:11:36.712Z,18.77
2019-04-27T13:14:06.293Z,18.07
2019-04-27T13:16:35.755Z,17.55
2019-04-27T13:19:06.160Z,14.00
2019-04-27T13:21:36.571Z,16.62
2019-04-27T13:24:06.983Z,15.65
2019-04-27T13:26:38.192Z,21.82
2019-04-27T13:29:07.544Z,19.90
2019-04-27T13:31:38.172Z,19.20
2019-04-27T13:34:07.450Z,13.48
2019-04-27T13:36:36.934Z,13.60
2019-04-27T13:39:06.769Z,19.85
2019-04-27T13:41:36.345Z,18.17
2019-04-27T13:44:06.557Z,17.87
2019-04-27T13:46:55.877Z,20.52
2019-04-27T13:49:36.371Z,17.05
2019-04-27T13:52:09.981Z,19.65
2019-04-27T13:54:39.250Z,14.43
2019-04-27T13:57:08.551Z,19.32
2019-04-27T13:59:37.826Z,16.25
2019-04-27T14:02:07.278Z,12.35
2019-04-27T14:04:36.551Z,17.10
2019-04-27T14:07:05.861Z,19.57
2019-04-27T14:09:35.199Z,19.02
2019-04-27T14:12:15.361Z,19.00
2019-04-27T14:14:44.826Z,16.93
2019-04-27T14:17:14.123Z,22.37
2019-04-27T14:19:43.396Z,18.55
2019-04-27T14:22:12.704Z,24.70
2019-04-27T14:24:42.372Z,21.45
2019-04-27T14:27:11.830Z,18.85
2019-04-27T14:29:41.178Z,14.03
2019-04-27T14:32:10.860Z,17.75
2019-04-27T14:34:40.163Z,16.02
2019-04-27T14:37:10.445Z,17.15
2019-04-27T14:39:39.817Z,16.20
2019-04-27T14:42:09.154Z,15.85
2019-04-27T14:44:38.964Z,21.17
2019-04-27T14:47:08.420Z,18.65
2019-04-27T14:49:39.057Z,20.15
2019-04-27T14:52:10.213Z,20.97
2019-04-27T14:54:47.276Z,19.73
2019-04-27T14:57:10.634Z,28.23
2019-04-27T14:59:39.942Z,18.48
2019-04-27T15:02:09.492Z,22.05
2019-04-27T15:04:40.214Z,21.33
2019-04-27T15:07:10.024Z,29.27
2019-04-27T15:09:39.366Z,23.80
2019-04-27T15:12:08.640Z,22.48
2019-04-27T15:14:38.802Z,22.77
2019-04-27T15:17:10.384Z,27.10
2019-04-27T15:19:41.041Z,18.75
2019-04-27T15:22:16.177Z,20.60
2019-04-27T15:24:47.169Z,24.87
2019-04-27T15:27:15.869Z,21.27
2019-04-27T15:29:45.365Z,22.10
2019-04-27T15:32:22.703Z,19.92
2019-04-27T15:34:53.625Z,22.95
2019-04-27T15:37:28.256Z,20.85
2019-04-27T15:40:10.077Z,20.70
2019-04-27T15:42:51.985Z,17.07
2019-04-27T15:45:24.213Z,18.62
2019-04-27T15:47:54.563Z,12.30
2019-04-27T15:50:30.318Z,10.58
2019-04-27T15:52:54.619Z,16.48
2019-04-27T15:55:32.392Z,19.65
2019-04-27T15:57:55.060Z,15.25
2019-04-27T16:00:28.602Z,15.13
2019-04-27T16:02:57.370Z,14.00
2019-04-27T16:05:28.622Z,17.80
2019-04-27T16:07:59.198Z,18.27
2019-04-27T16:10:32.787Z,22.73
2019-04-27T16:13:06.363Z,18.12
2019-04-27T16:15:30.908Z,19.40
2019-04-27T16:18:00.194Z,15.98
2019-04-27T16:20:33.782Z,17.73
2019-04-27T16:23:03.433Z,18.40
2019-04-27T16:25:45.184Z,9.98
2019-04-27T16:28:08.766Z,8.93
2019-04-27T16:30:35.533Z,5.30
2019-04-27T16:33:05.856Z,11.85
2019-04-27T16:35:35.392Z,11.70
2019-04-27T16:38:07.825Z,13.10
2019-04-27T16:40:38.979Z,14.25
2019-04-27T16:43:08.986Z,17.87
2019-04-27T16:45:38.886Z,14.87
2019-04-27T16:48:09.109Z,12.30
2019-04-27T16:50:39.090Z,16.67
2019-04-27T16:53:12.112Z,15.32
2019-04-27T16:55:39.717Z,14.38
2019-04-27T16:58:15.719Z,13.85
2019-04-27T17:00:40.895Z,10.45
2019-04-27T17:03:12.162Z,12.00
2019-04-27T17:05:41.679Z,12.80
2019-04-27T17:08:21.590Z,15.18
2019-04-27T17:10:42.035Z,12.88
2019-04-27T17:13:14.632Z,19.55
2019-04-27T17:15:55.749Z,16.75
2019-04-27T17:18:35.581Z,13.83
2019-04-27T17:21:16.138Z,12.25
2019-04-27T17:23:36.294Z,17.15
2019-04-27T17:26:20.050Z,17.57
2019-04-27T17:28:50.938Z,15.83
2019-04-27T17:31:21.648Z,16.80
2019-04-27T17:34:02.660Z,16.67
2019-04-27T17:36:31.963Z,9.65
2019-04-27T17:39:01.508Z,16.07
2019-04-27T17:41:32.500Z,8.23
2019-04-27T17:44:01.813Z,14.25
2019-04-27T17:46:31.091Z,14.85
2019-04-27T17:49:00.380Z,20.77
2019-04-27T17:51:30.974Z,23.27
2019-04-27T17:54:02.902Z,18.65
2019-04-27T17:56:35.861Z,15.45
2019-04-27T17:59:02.856Z,15.80
2019-04-27T18:01:32.452Z,13.60
2019-04-27T18:04:02.997Z,19.12
2019-04-27T18:06:32.643Z,16.97
2019-04-27T18:09:03.449Z,18.35
2019-04-27T18:11:37.256Z,14.50
2019-04-27T18:14:06.548Z,13.18
2019-04-27T18:16:35.848Z,14.25
2019-04-27T18:19:25.279Z,15.32
2019-04-27T18:22:00.838Z,16.50
2019-04-27T18:24:34.286Z,15.43
2019-04-27T18:27:21.951Z,16.12
2019-04-27T18:29:51.356Z,14.28
2019-04-27T18:32:23.679Z,21.10
2019-04-27T18:34:51.973Z,18.25
2019-04-27T18:37:24.735Z,19.00
2019-04-27T18:39:54.989Z,17.92
2019-04-27T18:42:28.057Z,20.65
2019-04-27T18:44:54.786Z,17.32
2019-04-27T18:47:24.092Z,20.30
2019-04-27T18:49:55.182Z,18.87
2019-04-27T18:52:47.314Z,18.50
2019-04-27T18:55:16.819Z,12.82
2019-04-27T18:57:46.013Z,14.38
2019-04-27T19:00:16.710Z,16.05
2019-04-27T19:02:48.252Z,17.92
2019-04-27T19:05:18.847Z,15.08
2019-04-27T19:07:48.604Z,14.80
2019-04-27T19:10:19.255Z,17.50
2019-04-27T19:12:48.793Z,21.68
2019-04-27T19:15:18.550Z,22.10
2019-04-27T19:17:48.982Z,20.57
2019-04-27T19:20:18.857Z,19.25
2019-04-27T19:22:49.032Z,20.00
2019-04-27T19:25:33.708Z,18.73
2019-04-27T19:28:04.629Z,17.82
2019-04-27T19:30:44.650Z,18.30
2019-04-27T19:33:13.958Z,17.52
2019-04-27T19:35:43.242Z,15.32
2019-04-27T19:38:12.627Z,14.93
2019-04-27T19:40:41.960Z,12.60
2019-04-27T19:43:11.348Z,12.58
2019-04-27T19:45:40.624Z,11.33
2019-04-27T19:48:10.647Z,14.28
2019-04-27T19:50:40.049Z,14.38
2019-04-27T19:53:09.750Z,14.00
2019-04-27T19:55:40.561Z,11.65
2019-04-27T19:58:10.267Z,15.20
2019-04-27T20:01:09.692Z,16.97
2019-04-27T20:03:31.549Z,12.05
2019-04-27T20:06:01.052Z,12.90
2019-04-27T20:08:38.840Z,11.80
2019-04-27T20:11:08.154Z,14.68
2019-04-27T20:13:37.456Z,16.82
2019-04-27T20:16:06.809Z,18.62
2019-04-27T20:18:36.144Z,15.53
2019-04-27T20:21:05.783Z,22.20
2019-04-27T20:23:35.067Z,20.80
2019-04-27T20:26:05.908Z,18.00
2019-04-27T20:28:38.449Z,19.92
2019-04-27T20:31:06.511Z,19.25
2019-04-27T20:33:35.799Z,20.12
2019-04-27T20:36:05.276Z,18.40
2019-04-27T20:38:34.724Z,21.12
2019-04-27T20:41:04.024Z,18.12
2019-04-27T20:43:33.301Z,24.02
2019-04-27T20:46:02.733Z,24.25
2019-04-27T20:48:33.093Z,26.70
2019-04-27T20:51:02.453Z,27.17
2019-04-27T20:53:34.633Z,21.50
2019-04-27T20:56:04.006Z,19.95
2019-04-27T20:58:34.888Z,28.47
2019-04-27T21:01:05.040Z,25.20
2019-04-27T21:03:38.199Z,27.73
2019-04-27T21:06:11.125Z,29.77
2019-04-27T21:11:11.855Z,29.23
2019-04-27T21:13:41.396Z,30.82
2019-04-27T21:16:12.448Z,31.55
2019-04-27T21:18:42.070Z,29.55
2019-04-27T21:21:11.591Z,23.18
2019-04-27T21:23:41.547Z,24.12
2019-04-27T21:26:10.967Z,24.65
2019-04-27T21:28:42.910Z,38.48
2019-04-27T21:31:12.773Z,32.90
2019-04-27T21:33:42.301Z,34.85
2019-04-27T21:36:11.906Z,28.98
2019-04-27T21:38:42.921Z,27.87
2019-04-27T21:41:12.194Z,30.02
2019-04-27T21:43:42.084Z,29.80
2019-04-27T21:46:12.467Z,24.52
2019-04-27T21:48:41.782Z,25.05
2019-04-27T21:51:11.810Z,23.73
2019-04-27T21:54:00.330Z,25.92
2019-04-27T21:56:31.144Z,30.92
2019-04-27T21:59:01.070Z,28.50
2019-04-27T22:01:32.154Z,30.32
2019-04-27T22:04:04.070Z,23.70
2019-04-27T22:06:33.697Z,29.77
2019-04-27T22:09:04.707Z,32.63
2019-04-27T22:11:35.784Z,32.93
2019-04-27T22:14:06.118Z,27.13
2019-04-27T22:16:37.291Z,27.73
2019-04-27T22:19:06.754Z,34.38
2019-04-27T22:21:37.688Z,27.20
2019-04-27T22:24:11.456Z,29.50
2019-04-27T22:26:41.468Z,27.22
2019-04-27T22:29:12.064Z,31.00
2019-04-27T22:31:41.775Z,33.08
2019-04-27T22:34:12.019Z,30.10
2019-04-27T22:36:41.311Z,28.62
2019-04-27T22:39:18.283Z,32.88
2019-04-27T22:41:54.911Z,28.62
2019-04-27T22:44:37.816Z,23.87
2019-04-27T22:47:07.166Z,26.55
2019-04-27T22:49:36.444Z,25.30
2019-04-27T22:52:05.753Z,26.35
2019-04-27T22:54:35.701Z,29.77
2019-04-27T22:57:06.644Z,19.07
2019-04-27T22:59:37.559Z,19.87
2019-04-27T23:02:08.495Z,18.37
2019-04-27T23:04:41.089Z,21.05
2019-04-27T23:07:11.050Z,19.42
2019-04-27T23:09:40.741Z,22.05
2019-04-27T23:12:12.729Z,15.23
2019-04-27T23:14:41.987Z,24.10
2019-04-27T23:17:27.967Z,20.70
2019-04-27T23:19:57.307Z,20.68
2019-04-27T23:22:26.790Z,14.65
2019-04-27T23:24:57.172Z,13.55
2019-04-27T23:27:26.440Z,10.48
2019-04-27T23:29:55.775Z,11.08
2019-04-27T23:32:26.710Z,9.15
2019-04-27T23:34:58.277Z,11.70
2019-04-27T23:37:27.777Z,11.35
2019-04-27T23:39:57.201Z,7.42
2019-04-27T23:42:26.575Z,8.93
2019-04-27T23:44:55.945Z,12.10
2019-04-27T23:47:25.326Z,10.03
2019-04-27T23:49:54.598Z,12.07
2019-04-27T23:52:41.802Z,10.75
2019-04-27T23:55:11.135Z,7.97
2019-04-27T23:57:40.420Z,7.30
